Главная страница
METAR-TAF:

METAR-TAF

Аэропорты :

Джидда, Саудовская Аравия

Король Абдул-Азиз

широта: 21-42N, долгота: 039-11E, высота над уровнем моря: 15 м

Текущие метеонаблюдения

Эта сводка был подготовлена 11 минут назад, в 14:00 UTC
Ветер 12 Узел от южный
Температура 35°C
Влажность 42%
Давление 1003 hPa
Видимость 10 км и более
Нет облачности ниже 1500 м, и нет кучево-дождевой облачности

METAR: OEJN 221400Z 18012KT CAVOK 35/20 Q1003 NOSIG

Время: 17:11 (14:11 UTC)

Прогноз

Эта сводка был подготовлена 3 часа и 11 минут назад, в 11:00 UTC
Прогноз действительный с 22-го 12 UTC до 23-го 18 UTC
Ветер 12 Узел от южный-юго-западный с порывами до 22 Узел
Видимость: 6000 м
временами
С 22-го 12 UTC до 22-го 16 UTC
Видимость: 3500 м
небольшая облачность на высоте 3000 фута
Низовая пыльная метель
изменения
С 22-го 18 UTC до 22-го 20 UTC
Ветер 8 Узел от северный

TAF: OEJN 221100Z 2212/2318 20012G22KT 6000 NSC TEMPO 2212/2216 3500 BLDU FEW030 BECMG 2218/2220 36008KT

Метеонаблюдения и прогнозы для более 4000 аэропортов (сводки METAR и TAF).

Имеющиеся станции представлены на карте желтыми и красными точками.

Чтобы увидеть название станции, наведите на нее мышь.

Затем щелкните, чтобы увидеть метеонаблюдения и метеопрогнозы.

Управление картой: чтобы увеличить масштаб, щелкните зеленые кнопки с черным крестиком; чтобы уменьшить масштаб, щелкните зеленую кнопку с тире; для просмотра соседних карт щелкайте зеленые стрелки.


METAR-TAF: